sensor_id;sensor_type;location;lat;lon;timestamp;pressure;altitude;pressure_sealevel;temperature;humidity
4834;BME280;12895;51.064;7.028;2023-07-02T00:01:06;99990.44;;;17.75;73.42
4834;BME280;12895;51.064;7.028;2023-07-02T00:03:51;99986.00;;;17.80;72.97
4834;BME280;12895;51.064;7.028;2023-07-02T00:06:36;99986.09;;;17.87;72.92
4834;BME280;12895;51.064;7.028;2023-07-02T00:09:24;99981.53;;;17.97;72.15
4834;BME280;12895;51.064;7.028;2023-07-02T00:12:10;99985.31;;;18.00;72.02
4834;BME280;12895;51.064;7.028;2023-07-02T00:14:56;99985.44;;;17.94;72.26
4834;BME280;12895;51.064;7.028;2023-07-02T00:17:42;99982.97;;;17.91;71.60
4834;BME280;12895;51.064;7.028;2023-07-02T00:20:27;99983.25;;;18.00;71.25
4834;BME280;12895;51.064;7.028;2023-07-02T00:23:14;99987.72;;;17.83;71.24
4834;BME280;12895;51.064;7.028;2023-07-02T00:26:00;99983.97;;;17.80;71.30
4834;BME280;12895;51.064;7.028;2023-07-02T00:28:45;99987.44;;;17.73;71.37
4834;BME280;12895;51.064;7.028;2023-07-02T00:31:30;99985.03;;;17.77;70.18
4834;BME280;12895;51.064;7.028;2023-07-02T00:34:17;99981.19;;;17.80;69.74
4834;BME280;12895;51.064;7.028;2023-07-02T00:37:03;99977.63;;;17.80;69.35
4834;BME280;12895;51.064;7.028;2023-07-02T00:39:48;99971.16;;;17.85;69.08
4834;BME280;12895;51.064;7.028;2023-07-02T00:42:33;99981.66;;;17.92;68.55
4834;BME280;12895;51.064;7.028;2023-07-02T00:45:19;99971.91;;;17.85;68.10
4834;BME280;12895;51.064;7.028;2023-07-02T00:48:05;99983.75;;;17.78;68.11
4834;BME280;12895;51.064;7.028;2023-07-02T00:50:52;99976.88;;;17.79;67.90
4834;BME280;12895;51.064;7.028;2023-07-02T00:53:37;99969.78;;;17.78;67.24
4834;BME280;12895;51.064;7.028;2023-07-02T00:56:23;99972.34;;;17.89;67.34
4834;BME280;12895;51.064;7.028;2023-07-02T00:59:09;99969.06;;;17.98;66.08
4834;BME280;12895;51.064;7.028;2023-07-02T01:01:54;99972.22;;;17.95;66.16
4834;BME280;12895;51.064;7.028;2023-07-02T01:04:41;99978.34;;;17.93;65.76
4834;BME280;12895;51.064;7.028;2023-07-02T01:07:27;99968.06;;;17.75;66.03
4834;BME280;12895;51.064;7.028;2023-07-02T01:10:13;99981.59;;;17.84;65.99
4834;BME280;12895;51.064;7.028;2023-07-02T01:13:00;99972.56;;;17.78;66.00
4834;BME280;12895;51.064;7.028;2023-07-02T01:15:47;99966.97;;;17.78;65.80
4834;BME280;12895;51.064;7.028;2023-07-02T01:18:32;99969.63;;;17.63;66.69
4834;BME280;12895;51.064;7.028;2023-07-02T01:21:20;99981.38;;;17.82;65.72
4834;BME280;12895;51.064;7.028;2023-07-02T01:24:05;99977.53;;;17.72;65.83
4834;BME280;12895;51.064;7.028;2023-07-02T01:26:51;99978.59;;;17.82;65.60
4834;BME280;12895;51.064;7.028;2023-07-02T01:29:36;99975.06;;;17.69;66.27
4834;BME280;12895;51.064;7.028;2023-07-02T01:32:22;99977.16;;;17.55;66.83
4834;BME280;12895;51.064;7.028;2023-07-02T01:35:09;99975.50;;;17.73;65.68
4834;BME280;12895;51.064;7.028;2023-07-02T01:37:56;99969.66;;;17.50;66.83
4834;BME280;12895;51.064;7.028;2023-07-02T01:40:41;99970.50;;;17.45;67.43
4834;BME280;12895;51.064;7.028;2023-07-02T01:43:26;99967.31;;;17.41;67.40
4834;BME280;12895;51.064;7.028;2023-07-02T01:46:11;99969.84;;;17.52;66.87
4834;BME280;12895;51.064;7.028;2023-07-02T01:48:57;99967.69;;;17.58;66.32
4834;BME280;12895;51.064;7.028;2023-07-02T01:51:44;99968.56;;;17.53;66.51
4834;BME280;12895;51.064;7.028;2023-07-02T01:54:32;99974.75;;;17.59;66.36
4834;BME280;12895;51.064;7.028;2023-07-02T01:57:18;99972.41;;;17.63;66.42
4834;BME280;12895;51.064;7.028;2023-07-02T02:00:04;99972.94;;;17.62;66.19
4834;BME280;12895;51.064;7.028;2023-07-02T02:02:59;99969.41;;;17.48;66.46
4834;BME280;12895;51.064;7.028;2023-07-02T02:05:45;99976.06;;;17.58;65.88
4834;BME280;12895;51.064;7.028;2023-07-02T02:08:30;99974.06;;;17.46;66.58
4834;BME280;12895;51.064;7.028;2023-07-02T02:11:18;99986.75;;;17.47;66.55
4834;BME280;12895;51.064;7.028;2023-07-02T02:14:04;99978.88;;;17.45;66.58
4834;BME280;12895;51.064;7.028;2023-07-02T02:16:49;99987.47;;;17.47;66.20
4834;BME280;12895;51.064;7.028;2023-07-02T02:19:35;99980.84;;;17.50;65.57
4834;BME280;12895;51.064;7.028;2023-07-02T02:22:20;99978.56;;;17.49;66.49
4834;BME280;12895;51.064;7.028;2023-07-02T02:25:06;99960.53;;;17.37;66.11
4834;BME280;12895;51.064;7.028;2023-07-02T02:27:53;99959.13;;;17.17;66.84
4834;BME280;12895;51.064;7.028;2023-07-02T02:30:38;99971.78;;;17.18;66.68
4834;BME280;12895;51.064;7.028;2023-07-02T02:33:25;99982.88;;;17.37;65.73
4834;BME280;12895;51.064;7.028;2023-07-02T02:36:11;99990.50;;;17.23;66.22
4834;BME280;12895;51.064;7.028;2023-07-02T02:38:56;99994.78;;;17.24;66.00
4834;BME280;12895;51.064;7.028;2023-07-02T02:41:43;99998.75;;;17.29;65.60
4834;BME280;12895;51.064;7.028;2023-07-02T02:44:33;99996.50;;;17.27;65.84
4834;BME280;12895;51.064;7.028;2023-07-02T02:47:19;99995.00;;;17.00;66.60
4834;BME280;12895;51.064;7.028;2023-07-02T02:50:05;100001.34;;;17.01;66.77
4834;BME280;12895;51.064;7.028;2023-07-02T02:52:51;100004.88;;;17.01;66.77
4834;BME280;12895;51.064;7.028;2023-07-02T02:55:37;100008.94;;;16.87;67.27
4834;BME280;12895;51.064;7.028;2023-07-02T02:58:22;100015.50;;;17.03;66.79
4834;BME280;12895;51.064;7.028;2023-07-02T03:01:09;100015.19;;;17.19;66.30
4834;BME280;12895;51.064;7.028;2023-07-02T03:03:54;100026.16;;;17.17;66.11
4834;BME280;12895;51.064;7.028;2023-07-02T03:06:40;100029.81;;;17.12;66.50
4834;BME280;12895;51.064;7.028;2023-07-02T03:09:26;100022.69;;;17.11;66.72
4834;BME280;12895;51.064;7.028;2023-07-02T03:12:12;100018.41;;;17.10;66.54
4834;BME280;12895;51.064;7.028;2023-07-02T03:14:58;100024.75;;;17.24;65.81
4834;BME280;12895;51.064;7.028;2023-07-02T03:17:45;100027.66;;;16.92;67.12
4834;BME280;12895;51.064;7.028;2023-07-02T03:20:30;100023.78;;;16.95;67.00
4834;BME280;12895;51.064;7.028;2023-07-02T03:23:15;100028.28;;;17.11;66.59
4834;BME280;12895;51.064;7.028;2023-07-02T03:26:00;100025.63;;;17.19;66.30
4834;BME280;12895;51.064;7.028;2023-07-02T03:28:46;100036.44;;;17.09;66.58
4834;BME280;12895;51.064;7.028;2023-07-02T03:31:31;100032.38;;;16.97;67.98
4834;BME280;12895;51.064;7.028;2023-07-02T03:34:18;100027.00;;;16.99;67.22
4834;BME280;12895;51.064;7.028;2023-07-02T03:37:04;100027.44;;;17.03;67.01
4834;BME280;12895;51.064;7.028;2023-07-02T03:39:49;100026.78;;;17.10;66.68
4834;BME280;12895;51.064;7.028;2023-07-02T03:42:34;100035.25;;;17.05;66.62
4834;BME280;12895;51.064;7.028;2023-07-02T03:45:19;100036.22;;;16.94;67.32
4834;BME280;12895;51.064;7.028;2023-07-02T03:48:05;100039.34;;;17.04;67.66
4834;BME280;12895;51.064;7.028;2023-07-02T03:50:52;100042.59;;;17.08;67.17
4834;BME280;12895;51.064;7.028;2023-07-02T03:53:37;100032.78;;;16.88;67.38
4834;BME280;12895;51.064;7.028;2023-07-02T03:56:22;100036.66;;;16.98;67.57
4834;BME280;12895;51.064;7.028;2023-07-02T03:59:08;100044.09;;;17.09;67.12
4834;BME280;12895;51.064;7.028;2023-07-02T04:01:53;100047.28;;;17.13;66.89
4834;BME280;12895;51.064;7.028;2023-07-02T04:04:38;100054.28;;;17.06;67.03
4834;BME280;12895;51.064;7.028;2023-07-02T04:07:25;100056.41;;;16.87;67.74
4834;BME280;12895;51.064;7.028;2023-07-02T04:10:10;100065.66;;;16.95;67.57
4834;BME280;12895;51.064;7.028;2023-07-02T04:12:56;100063.75;;;17.16;66.98
4834;BME280;12895;51.064;7.028;2023-07-02T04:15:41;100075.13;;;17.05;67.41
4834;BME280;12895;51.064;7.028;2023-07-02T04:18:27;100077.69;;;17.03;67.45
4834;BME280;12895;51.064;7.028;2023-07-02T04:21:13;100072.63;;;16.89;67.93
4834;BME280;12895;51.064;7.028;2023-07-02T04:24:00;100075.06;;;16.79;68.44
4834;BME280;12895;51.064;7.028;2023-07-02T04:26:45;100074.53;;;16.94;68.24
4834;BME280;12895;51.064;7.028;2023-07-02T04:29:30;100079.19;;;17.04;67.70
4834;BME280;12895;51.064;7.028;2023-07-02T04:32:16;100086.25;;;16.92;68.21
4834;BME280;12895;51.064;7.028;2023-07-02T04:35:01;100079.41;;;17.19;67.56
4834;BME280;12895;51.064;7.028;2023-07-02T04:37:46;100083.28;;;17.29;67.16
4834;BME280;12895;51.064;7.028;2023-07-02T04:40:33;100084.59;;;17.28;67.27
4834;BME280;12895;51.064;7.028;2023-07-02T04:43:18;100089.13;;;17.31;67.56
4834;BME280;12895;51.064;7.028;2023-07-02T04:46:04;100087.78;;;17.06;68.05
4834;BME280;12895;51.064;7.028;2023-07-02T04:48:51;100087.19;;;17.39;67.40
4834;BME280;12895;51.064;7.028;2023-07-02T04:51:36;100091.06;;;17.49;66.88
4834;BME280;12895;51.064;7.028;2023-07-02T04:54:21;100095.22;;;17.30;67.63
4834;BME280;12895;51.064;7.028;2023-07-02T04:57:08;100089.19;;;17.26;67.43
4834;BME280;12895;51.064;7.028;2023-07-02T04:59:54;100103.59;;;17.30;67.83
4834;BME280;12895;51.064;7.028;2023-07-02T05:02:40;100104.41;;;17.43;67.24
4834;BME280;12895;51.064;7.028;2023-07-02T05:05:25;100109.34;;;17.37;67.86
4834;BME280;12895;51.064;7.028;2023-07-02T05:08:10;100112.94;;;17.19;68.43
4834;BME280;12895;51.064;7.028;2023-07-02T05:10:56;100104.41;;;17.56;67.18
4834;BME280;12895;51.064;7.028;2023-07-02T05:13:44;100106.78;;;17.52;67.46
4834;BME280;12895;51.064;7.028;2023-07-02T05:16:30;100106.34;;;17.61;67.71
4834;BME280;12895;51.064;7.028;2023-07-02T05:19:15;100107.41;;;17.45;67.91
4834;BME280;12895;51.064;7.028;2023-07-02T05:22:00;100118.16;;;17.67;67.20
4834;BME280;12895;51.064;7.028;2023-07-02T05:24:46;100116.44;;;17.51;67.69
4834;BME280;12895;51.064;7.028;2023-07-02T05:27:31;100119.78;;;17.50;68.01
4834;BME280;12895;51.064;7.028;2023-07-02T05:30:17;100124.81;;;17.64;67.59
4834;BME280;12895;51.064;7.028;2023-07-02T05:33:03;100128.22;;;17.96;66.67
4834;BME280;12895;51.064;7.028;2023-07-02T05:35:48;100131.38;;;17.80;67.12
4834;BME280;12895;51.064;7.028;2023-07-02T05:38:33;100127.69;;;17.98;66.81
4834;BME280;12895;51.064;7.028;2023-07-02T05:41:18;100135.13;;;17.82;67.19
4834;BME280;12895;51.064;7.028;2023-07-02T05:44:04;100130.81;;;17.94;66.64
4834;BME280;12895;51.064;7.028;2023-07-02T05:46:51;100128.75;;;18.08;66.28
4834;BME280;12895;51.064;7.028;2023-07-02T05:49:36;100129.09;;;18.04;66.63
4834;BME280;12895;51.064;7.028;2023-07-02T05:52:21;100134.88;;;18.19;66.19
4834;BME280;12895;51.064;7.028;2023-07-02T05:55:08;100134.69;;;18.04;66.90
4834;BME280;12895;51.064;7.028;2023-07-02T05:57:54;100142.81;;;18.28;65.61
4834;BME280;12895;51.064;7.028;2023-07-02T06:00:41;100155.88;;;18.00;66.40
4834;BME280;12895;51.064;7.028;2023-07-02T06:03:34;100143.91;;;18.12;66.53
4834;BME280;12895;51.064;7.028;2023-07-02T06:06:21;100157.91;;;18.12;66.15
4834;BME280;12895;51.064;7.028;2023-07-02T06:09:08;100160.28;;;18.08;66.54
4834;BME280;12895;51.064;7.028;2023-07-02T06:11:53;100150.59;;;18.09;66.21
4834;BME280;12895;51.064;7.028;2023-07-02T06:14:39;100154.47;;;18.06;66.67
4834;BME280;12895;51.064;7.028;2023-07-02T06:17:25;100168.44;;;18.19;66.15
4834;BME280;12895;51.064;7.028;2023-07-02T06:20:12;100161.94;;;18.50;65.25
4834;BME280;12895;51.064;7.028;2023-07-02T06:22:58;100163.56;;;18.46;65.38
4834;BME280;12895;51.064;7.028;2023-07-02T06:25:44;100161.88;;;18.63;64.36
4834;BME280;12895;51.064;7.028;2023-07-02T06:28:29;100160.06;;;18.66;64.00
4834;BME280;12895;51.064;7.028;2023-07-02T06:31:14;100157.19;;;18.58;64.32
4834;BME280;12895;51.064;7.028;2023-07-02T06:33:59;100167.69;;;18.65;63.82
4834;BME280;12895;51.064;7.028;2023-07-02T06:36:47;100177.34;;;18.77;63.33
4834;BME280;12895;51.064;7.028;2023-07-02T06:39:33;100178.69;;;18.63;64.26
4834;BME280;12895;51.064;7.028;2023-07-02T06:42:18;100177.81;;;18.68;64.12
4834;BME280;12895;51.064;7.028;2023-07-02T06:45:05;100175.78;;;18.89;62.56
4834;BME280;12895;51.064;7.028;2023-07-02T06:47:50;100184.59;;;18.93;61.96
4834;BME280;12895;51.064;7.028;2023-07-02T06:50:35;100189.28;;;18.78;62.85
4834;BME280;12895;51.064;7.028;2023-07-02T06:53:22;100186.56;;;18.85;62.39
4834;BME280;12895;51.064;7.028;2023-07-02T06:56:08;100193.75;;;18.94;62.00
4834;BME280;12895;51.064;7.028;2023-07-02T06:58:53;100195.44;;;19.30;61.38
4834;BME280;12895;51.064;7.028;2023-07-02T07:01:39;100198.84;;;19.36;61.38
4834;BME280;12895;51.064;7.028;2023-07-02T07:04:24;100204.31;;;19.21;61.52
4834;BME280;12895;51.064;7.028;2023-07-02T07:07:09;100200.44;;;19.24;60.75
4834;BME280;12895;51.064;7.028;2023-07-02T07:09:56;100199.53;;;19.29;61.46
4834;BME280;12895;51.064;7.028;2023-07-02T07:12:41;100205.97;;;19.37;61.00
4834;BME280;12895;51.064;7.028;2023-07-02T07:15:30;100201.47;;;19.34;61.33
4834;BME280;12895;51.064;7.028;2023-07-02T07:18:16;100197.28;;;19.48;60.88
4834;BME280;12895;51.064;7.028;2023-07-02T07:21:02;100204.09;;;19.88;59.34
4834;BME280;12895;51.064;7.028;2023-07-02T07:23:47;100200.78;;;19.97;59.21
4834;BME280;12895;51.064;7.028;2023-07-02T07:26:34;100209.69;;;19.88;58.86
4834;BME280;12895;51.064;7.028;2023-07-02T07:29:19;100211.34;;;20.04;58.30
4834;BME280;12895;51.064;7.028;2023-07-02T07:32:05;100210.31;;;19.66;57.71
4834;BME280;12895;51.064;7.028;2023-07-02T07:34:52;100217.13;;;19.78;58.62
4834;BME280;12895;51.064;7.028;2023-07-02T07:37:38;100218.81;;;19.53;58.45
4834;BME280;12895;51.064;7.028;2023-07-02T07:40:23;100222.34;;;19.74;57.08
4834;BME280;12895;51.064;7.028;2023-07-02T07:43:10;100219.72;;;19.76;56.70
4834;BME280;12895;51.064;7.028;2023-07-02T07:45:57;100220.53;;;19.84;56.66
4834;BME280;12895;51.064;7.028;2023-07-02T07:48:43;100223.34;;;20.12;55.72
4834;BME280;12895;51.064;7.028;2023-07-02T07:51:29;100231.16;;;20.06;54.90
4834;BME280;12895;51.064;7.028;2023-07-02T07:54:14;100231.66;;;20.25;54.40
4834;BME280;12895;51.064;7.028;2023-07-02T07:57:03;100221.03;;;20.31;55.01
4834;BME280;12895;51.064;7.028;2023-07-02T07:59:49;100226.13;;;20.40;54.78
4834;BME280;12895;51.064;7.028;2023-07-02T08:02:36;100231.34;;;20.36;53.63
4834;BME280;12895;51.064;7.028;2023-07-02T08:05:22;100230.34;;;20.26;53.41
4834;BME280;12895;51.064;7.028;2023-07-02T08:08:08;100237.66;;;20.29;52.95
4834;BME280;12895;51.064;7.028;2023-07-02T08:10:54;100232.13;;;20.44;52.29
4834;BME280;12895;51.064;7.028;2023-07-02T08:13:39;100235.34;;;20.20;53.81
4834;BME280;12895;51.064;7.028;2023-07-02T08:16:27;100247.38;;;20.28;54.14
4834;BME280;12895;51.064;7.028;2023-07-02T08:19:14;100244.47;;;20.41;52.87
4834;BME280;12895;51.064;7.028;2023-07-02T08:22:00;100251.75;;;20.36;53.70
4834;BME280;12895;51.064;7.028;2023-07-02T08:24:45;100245.84;;;20.19;53.18
4834;BME280;12895;51.064;7.028;2023-07-02T08:27:34;100251.00;;;20.08;53.90
4834;BME280;12895;51.064;7.028;2023-07-02T08:30:20;100259.41;;;20.36;53.08
4834;BME280;12895;51.064;7.028;2023-07-02T08:33:06;100252.66;;;20.39;52.38
4834;BME280;12895;51.064;7.028;2023-07-02T08:35:51;100257.03;;;20.12;52.55
4834;BME280;12895;51.064;7.028;2023-07-02T08:38:39;100260.19;;;19.88;53.61
4834;BME280;12895;51.064;7.028;2023-07-02T08:41:28;100259.34;;;20.21;54.01
4834;BME280;12895;51.064;7.028;2023-07-02T08:44:19;100256.00;;;20.30;52.38
4834;BME280;12895;51.064;7.028;2023-07-02T08:47:08;100257.53;;;20.31;52.70
4834;BME280;12895;51.064;7.028;2023-07-02T08:49:55;100265.28;;;20.53;51.04
4834;BME280;12895;51.064;7.028;2023-07-02T08:52:41;100268.34;;;20.27;50.87
4834;BME280;12895;51.064;7.028;2023-07-02T08:55:28;100266.09;;;20.61;50.65
4834;BME280;12895;51.064;7.028;2023-07-02T08:58:14;100254.03;;;20.88;49.10
4834;BME280;12895;51.064;7.028;2023-07-02T09:01:06;100259.72;;;21.26;48.77
4834;BME280;12895;51.064;7.028;2023-07-02T09:03:52;100252.63;;;21.55;47.92
4834;BME280;12895;51.064;7.028;2023-07-02T09:06:38;100259.41;;;21.37;48.16
4834;BME280;12895;51.064;7.028;2023-07-02T09:09:24;100260.91;;;21.45;47.67
4834;BME280;12895;51.064;7.028;2023-07-02T09:12:09;100259.94;;;21.28;47.83
4834;BME280;12895;51.064;7.028;2023-07-02T09:15:00;100255.59;;;21.19;48.54
4834;BME280;12895;51.064;7.028;2023-07-02T09:17:46;100260.91;;;21.45;47.82
4834;BME280;12895;51.064;7.028;2023-07-02T09:20:32;100261.47;;;21.59;48.03
4834;BME280;12895;51.064;7.028;2023-07-02T09:23:20;100258.22;;;21.25;48.37
4834;BME280;12895;51.064;7.028;2023-07-02T09:26:05;100267.56;;;20.97;49.09
4834;BME280;12895;51.064;7.028;2023-07-02T09:29:00;100263.44;;;20.98;47.91
4834;BME280;12895;51.064;7.028;2023-07-02T09:31:46;100262.00;;;21.27;48.19
4834;BME280;12895;51.064;7.028;2023-07-02T09:34:33;100268.78;;;21.47;47.78
4834;BME280;12895;51.064;7.028;2023-07-02T09:37:19;100280.75;;;21.55;47.17
4834;BME280;12895;51.064;7.028;2023-07-02T09:40:07;100266.50;;;21.30;46.86
4834;BME280;12895;51.064;7.028;2023-07-02T09:42:54;100266.88;;;21.27;47.09
4834;BME280;12895;51.064;7.028;2023-07-02T09:45:42;100279.47;;;21.56;46.91
4834;BME280;12895;51.064;7.028;2023-07-02T09:48:28;100273.28;;;21.50;47.10
4834;BME280;12895;51.064;7.028;2023-07-02T09:51:16;100268.03;;;21.61;47.84
4834;BME280;12895;51.064;7.028;2023-07-02T09:54:01;100262.59;;;21.93;46.38
4834;BME280;12895;51.064;7.028;2023-07-02T09:56:48;100264.25;;;22.19;46.93
4834;BME280;12895;51.064;7.028;2023-07-02T09:59:35;100257.00;;;21.71;47.49
4834;BME280;12895;51.064;7.028;2023-07-02T10:02:20;100272.50;;;21.27;48.18
4834;BME280;12895;51.064;7.028;2023-07-02T10:05:06;100273.19;;;21.05;48.10
4834;BME280;12895;51.064;7.028;2023-07-02T10:07:51;100281.06;;;20.63;49.12
4834;BME280;12895;51.064;7.028;2023-07-02T10:10:37;100274.53;;;20.68;49.45
4834;BME280;12895;51.064;7.028;2023-07-02T10:13:29;100284.84;;;20.38;49.66
4834;BME280;12895;51.064;7.028;2023-07-02T10:16:15;100288.88;;;20.50;49.85
4834;BME280;12895;51.064;7.028;2023-07-02T10:19:11;100285.75;;;20.68;49.76
4834;BME280;12895;51.064;7.028;2023-07-02T10:22:00;100276.75;;;20.98;49.67
4834;BME280;12895;51.064;7.028;2023-07-02T10:24:54;100274.38;;;21.24;48.82
4834;BME280;12895;51.064;7.028;2023-07-02T10:27:42;100272.16;;;21.38;48.56
4834;BME280;12895;51.064;7.028;2023-07-02T10:30:33;100283.00;;;21.34;48.28
4834;BME280;12895;51.064;7.028;2023-07-02T10:33:19;100276.31;;;21.67;47.27
4834;BME280;12895;51.064;7.028;2023-07-02T10:36:04;100278.56;;;21.76;46.86
4834;BME280;12895;51.064;7.028;2023-07-02T10:38:50;100275.75;;;21.91;45.78
4834;BME280;12895;51.064;7.028;2023-07-02T10:41:36;100291.25;;;22.37;45.11
4834;BME280;12895;51.064;7.028;2023-07-02T10:44:21;100278.91;;;22.25;45.54
4834;BME280;12895;51.064;7.028;2023-07-02T10:47:08;100293.13;;;22.42;45.77
4834;BME280;12895;51.064;7.028;2023-07-02T10:49:53;100290.91;;;22.18;46.25
4834;BME280;12895;51.064;7.028;2023-07-02T10:52:39;100287.34;;;22.10;46.06
4834;BME280;12895;51.064;7.028;2023-07-02T10:55:25;100295.75;;;22.40;45.88
4834;BME280;12895;51.064;7.028;2023-07-02T10:58:12;100289.38;;;22.32;45.79
4834;BME280;12895;51.064;7.028;2023-07-02T11:00:58;100283.03;;;22.24;45.63
4834;BME280;12895;51.064;7.028;2023-07-02T11:03:45;100288.25;;;22.35;44.82
4834;BME280;12895;51.064;7.028;2023-07-02T11:06:32;100273.25;;;22.25;43.97
4834;BME280;12895;51.064;7.028;2023-07-02T11:09:17;100279.31;;;21.99;45.76
4834;BME280;12895;51.064;7.028;2023-07-02T11:12:05;100274.06;;;21.88;46.72
4834;BME280;12895;51.064;7.028;2023-07-02T11:14:50;100284.34;;;21.48;47.92
4834;BME280;12895;51.064;7.028;2023-07-02T11:17:36;100290.47;;;21.24;48.92
4834;BME280;12895;51.064;7.028;2023-07-02T11:20:33;100293.69;;;21.28;49.21
4834;BME280;12895;51.064;7.028;2023-07-02T11:23:20;100301.91;;;21.26;48.78
4834;BME280;12895;51.064;7.028;2023-07-02T11:26:06;100299.47;;;21.22;48.74
4834;BME280;12895;51.064;7.028;2023-07-02T11:28:51;100302.88;;;21.51;48.79
4834;BME280;12895;51.064;7.028;2023-07-02T11:31:37;100301.81;;;21.69;48.28
4834;BME280;12895;51.064;7.028;2023-07-02T11:34:22;100307.78;;;21.58;47.74
4834;BME280;12895;51.064;7.028;2023-07-02T11:37:09;100306.97;;;21.35;48.16
4834;BME280;12895;51.064;7.028;2023-07-02T11:39:54;100318.63;;;21.39;48.54
4834;BME280;12895;51.064;7.028;2023-07-02T11:42:41;100321.09;;;20.92;49.44
4834;BME280;12895;51.064;7.028;2023-07-02T11:45:26;100323.94;;;20.64;49.60
4834;BME280;12895;51.064;7.028;2023-07-02T11:48:12;100329.47;;;20.49;50.26
4834;BME280;12895;51.064;7.028;2023-07-02T11:50:57;100329.75;;;20.38;50.49
4834;BME280;12895;51.064;7.028;2023-07-02T11:53:44;100320.44;;;20.43;49.49
4834;BME280;12895;51.064;7.028;2023-07-02T11:56:29;100316.50;;;20.74;48.38
4834;BME280;12895;51.064;7.028;2023-07-02T11:59:14;100332.78;;;21.11;47.80
4834;BME280;12895;51.064;7.028;2023-07-02T12:02:00;100313.81;;;21.69;47.67
4834;BME280;12895;51.064;7.028;2023-07-02T12:04:45;100320.22;;;21.85;45.08
4834;BME280;12895;51.064;7.028;2023-07-02T12:07:30;100308.56;;;21.88;46.96
4834;BME280;12895;51.064;7.028;2023-07-02T12:10:17;100305.75;;;21.96;45.31
4834;BME280;12895;51.064;7.028;2023-07-02T12:13:03;100304.44;;;22.19;46.74
4834;BME280;12895;51.064;7.028;2023-07-02T12:15:48;100306.63;;;22.51;44.01
4834;BME280;12895;51.064;7.028;2023-07-02T12:18:35;100321.84;;;22.48;42.11
4834;BME280;12895;51.064;7.028;2023-07-02T12:21:20;100317.00;;;22.18;43.07
4834;BME280;12895;51.064;7.028;2023-07-02T12:24:06;100319.63;;;22.09;42.50
4834;BME280;12895;51.064;7.028;2023-07-02T12:26:55;100323.53;;;22.36;42.28
4834;BME280;12895;51.064;7.028;2023-07-02T12:29:40;100309.25;;;22.49;42.49
4834;BME280;12895;51.064;7.028;2023-07-02T12:32:25;100308.13;;;23.06;41.21
4834;BME280;12895;51.064;7.028;2023-07-02T12:35:11;100296.56;;;23.26;39.05
4834;BME280;12895;51.064;7.028;2023-07-02T12:37:57;100307.97;;;23.92;37.98
4834;BME280;12895;51.064;7.028;2023-07-02T12:40:42;100292.88;;;23.97;35.68
4834;BME280;12895;51.064;7.028;2023-07-02T12:43:29;100294.91;;;24.38;36.92
4834;BME280;12895;51.064;7.028;2023-07-02T12:46:14;100311.88;;;23.97;38.00
4834;BME280;12895;51.064;7.028;2023-07-02T12:48:59;100309.72;;;23.80;38.01
4834;BME280;12895;51.064;7.028;2023-07-02T12:51:44;100307.06;;;23.82;36.68
4834;BME280;12895;51.064;7.028;2023-07-02T12:54:31;100302.00;;;23.56;37.32
4834;BME280;12895;51.064;7.028;2023-07-02T12:57:17;100296.81;;;23.94;36.96
4834;BME280;12895;51.064;7.028;2023-07-02T13:00:05;100303.03;;;24.17;36.97
4834;BME280;12895;51.064;7.028;2023-07-02T13:02:51;100300.22;;;24.34;35.70
4834;BME280;12895;51.064;7.028;2023-07-02T13:05:36;100304.88;;;24.39;34.57
4834;BME280;12895;51.064;7.028;2023-07-02T13:08:22;100311.91;;;24.14;34.86
4834;BME280;12895;51.064;7.028;2023-07-02T13:11:07;100296.06;;;24.35;35.41
4834;BME280;12895;51.064;7.028;2023-07-02T13:13:53;100307.69;;;24.90;35.15
4834;BME280;12895;51.064;7.028;2023-07-02T13:16:39;100312.38;;;24.61;34.69
4834;BME280;12895;51.064;7.028;2023-07-02T13:19:25;100312.38;;;24.78;34.15
4834;BME280;12895;51.064;7.028;2023-07-02T13:22:12;100307.03;;;24.82;34.56
4834;BME280;12895;51.064;7.028;2023-07-02T13:24:58;100309.88;;;24.82;34.38
4834;BME280;12895;51.064;7.028;2023-07-02T13:27:43;100308.69;;;24.51;34.30
4834;BME280;12895;51.064;7.028;2023-07-02T13:30:29;100315.38;;;24.63;34.16
4834;BME280;12895;51.064;7.028;2023-07-02T13:33:16;100314.94;;;24.67;35.02
4834;BME280;12895;51.064;7.028;2023-07-02T13:36:02;100305.38;;;24.79;34.60
4834;BME280;12895;51.064;7.028;2023-07-02T13:38:47;100297.16;;;25.17;34.52
4834;BME280;12895;51.064;7.028;2023-07-02T13:41:32;100305.25;;;25.47;32.89
4834;BME280;12895;51.064;7.028;2023-07-02T13:44:18;100296.91;;;25.49;33.79
4834;BME280;12895;51.064;7.028;2023-07-02T13:47:03;100294.19;;;25.15;34.31
4834;BME280;12895;51.064;7.028;2023-07-02T13:49:50;100311.88;;;24.72;35.79
4834;BME280;12895;51.064;7.028;2023-07-02T13:52:36;100302.50;;;24.11;36.81
4834;BME280;12895;51.064;7.028;2023-07-02T13:55:21;100301.88;;;24.20;36.46
4834;BME280;12895;51.064;7.028;2023-07-02T13:58:11;100308.88;;;24.36;36.19
4834;BME280;12895;51.064;7.028;2023-07-02T14:00:57;100311.09;;;24.38;36.43
4834;BME280;12895;51.064;7.028;2023-07-02T14:03:43;100315.19;;;24.27;35.33
4834;BME280;12895;51.064;7.028;2023-07-02T14:06:29;100314.91;;;24.16;36.71
4834;BME280;12895;51.064;7.028;2023-07-02T14:09:14;100310.19;;;24.52;36.35
4834;BME280;12895;51.064;7.028;2023-07-02T14:11:59;100312.81;;;25.01;35.22
4834;BME280;12895;51.064;7.028;2023-07-02T14:14:44;100310.25;;;25.39;33.51
4834;BME280;12895;51.064;7.028;2023-07-02T14:17:32;100318.06;;;25.48;33.91
4834;BME280;12895;51.064;7.028;2023-07-02T14:20:17;100311.00;;;25.13;34.36
4834;BME280;12895;51.064;7.028;2023-07-02T14:23:03;100309.19;;;24.40;35.27
4834;BME280;12895;51.064;7.028;2023-07-02T14:25:50;100306.25;;;25.78;34.02
4834;BME280;12895;51.064;7.028;2023-07-02T14:28:35;100314.53;;;26.86;32.78
4834;BME280;12895;51.064;7.028;2023-07-02T14:31:21;100306.13;;;28.90;30.18
4834;BME280;12895;51.064;7.028;2023-07-02T14:34:07;100310.75;;;30.30;27.89
4834;BME280;12895;51.064;7.028;2023-07-02T14:36:53;100300.59;;;30.75;25.95
4834;BME280;12895;51.064;7.028;2023-07-02T14:39:38;100297.56;;;30.48;25.93
4834;BME280;12895;51.064;7.028;2023-07-02T14:42:23;100303.66;;;28.42;29.35